Time;durP1;ratioP1;P1;durP2;ratioP2;P2;SDS_P1;SDS_P2;PMS_P1;PMS_P2;Temp;Humidity;BMP_temperature;BMP_pressure;BME280_temperature;BME280_humidity;BME280_pressure;Samples;Min_cycle;Max_cycle;Signal;HPM_P1;HPM_P2
2023/05/16 00:00:08;;;;;;;1.65;0.00;;;;;;;12.97;100.00;101594.06;5127469;27;20049;-49
2023/05/16 00:02:34;;;;;;;0.22;0.10;;;;;;;12.95;100.00;101590.75;5120285;27;20490;-48
2023/05/16 00:05:00;;;;;;;3.25;0.38;;;;;;;12.91;100.00;101600.09;5119904;27;20476;-50
2023/05/16 00:07:25;;;;;;;10.52;1.35;;;;;;;12.86;100.00;101595.31;5115040;27;20058;-49
2023/05/16 00:09:51;;;;;;;0.20;0.20;;;;;;;12.78;100.00;101603.38;5111880;27;20110;-48
2023/05/16 00:12:16;;;;;;;3.80;0.90;;;;;;;12.71;100.00;101599.75;5114073;27;20449;-50
2023/05/16 00:14:42;;;;;;;1.40;0.10;;;;;;;12.61;100.00;101611.47;5117329;27;20504;-48
2023/05/16 00:17:10;;;;;;;2.25;0.10;;;;;;;12.49;100.00;101612.84;5124270;27;20382;-53
2023/05/16 00:19:38;;;;;;;2.83;0.10;;;;;;;12.37;100.00;101607.13;5119648;27;20063;-53
2023/05/16 00:22:04;;;;;;;3.47;0.30;;;;;;;12.28;100.00;101607.34;5114194;27;20386;-48
2023/05/16 00:24:30;;;;;;;2.35;0.22;;;;;;;12.21;100.00;101609.88;5119337;27;20031;-49
2023/05/16 00:26:55;;;;;;;2.92;0.15;;;;;;;12.16;100.00;101617.56;5116277;27;20031;-48
2023/05/16 00:29:23;;;;;;;2.35;0.38;;;;;;;12.14;100.00;101615.06;5115406;27;20708;-50
2023/05/16 00:31:48;;;;;;;2.53;0.10;;;;;;;12.06;100.00;101614.28;5122019;27;20034;-47
2023/05/16 00:34:13;;;;;;;3.47;0.15;;;;;;;11.94;100.00;101616.47;5113022;27;20063;-52
2023/05/16 00:36:39;;;;;;;4.72;1.55;;;;;;;11.87;100.00;101621.63;5111769;27;20032;-47
2023/05/16 00:39:04;;;;;;;1.95;1.00;;;;;;;11.98;100.00;101618.63;5112053;27;20527;-51
2023/05/16 00:41:30;;;;;;;3.60;0.13;;;;;;;11.93;100.00;101613.00;5119160;27;20131;-51
2023/05/16 00:43:55;;;;;;;5.28;0.38;;;;;;;11.98;100.00;101618.63;5115280;27;20034;-51
2023/05/16 00:46:20;;;;;;;2.90;0.30;;;;;;;11.95;100.00;101618.13;5118979;27;20043;-53
2023/05/16 00:48:46;;;;;;;0.40;0.10;;;;;;;11.89;100.00;101614.31;5120337;27;20058;-48
2023/05/16 00:51:11;;;;;;;2.17;0.20;;;;;;;11.85;100.00;101622.78;5115298;27;20023;-50
2023/05/16 00:53:36;;;;;;;0.95;0.10;;;;;;;11.67;100.00;101620.34;5120557;27;20019;-47
2023/05/16 00:56:02;;;;;;;0.32;0.10;;;;;;;11.82;100.00;101621.28;5119423;27;20104;-52
2023/05/16 00:58:29;;;;;;;5.35;0.10;;;;;;;11.72;100.00;101618.84;5116975;27;20070;-49
2023/05/16 01:00:55;;;;;;;3.95;0.20;;;;;;;11.69;100.00;101621.00;5111463;27;20051;-48
2023/05/16 01:03:21;;;;;;;1.27;0.30;;;;;;;11.73;100.00;101617.84;5122911;27;20123;-49
2023/05/16 01:05:48;;;;;;;0.43;0.30;;;;;;;11.62;100.00;101622.72;5123058;27;20027;-48
2023/05/16 01:08:14;;;;;;;2.72;0.20;;;;;;;11.54;100.00;101629.69;5111754;27;20034;-52
2023/05/16 01:10:52;;;;;;;4.57;0.25;;;;;;;11.45;100.00;101625.38;5093832;27;20035;-49
2023/05/16 01:13:30;;;;;;;1.13;0.40;;;;;;;11.32;100.00;101617.94;5109990;27;20728;-50
2023/05/16 01:16:03;;;;;;;2.92;0.10;;;;;;;11.25;100.00;101627.56;5121680;27;20106;-46
2023/05/16 01:18:42;;;;;;;4.25;1.30;;;;;;;11.24;100.00;101623.25;5119041;27;20480;-52
2023/05/16 01:21:41;;;;;;;5.65;1.85;;;;;;;11.25;100.00;101624.06;5118266;27;20027;-50
2023/05/16 01:24:21;;;;;;;0.65;0.25;;;;;;;11.19;100.00;101624.75;5113764;27;20117;-47
2023/05/16 01:26:48;;;;;;;4.35;0.15;;;;;;;11.06;100.00;101620.78;5114925;27;20039;-50
2023/05/16 01:29:14;;;;;;;1.20;0.10;;;;;;;11.03;100.00;101631.72;5112297;27;20039;-51
2023/05/16 01:31:39;;;;;;;1.27;0.40;;;;;;;10.96;100.00;101632.56;5117648;27;20050;-50
2023/05/16 01:34:05;;;;;;;2.53;0.98;;;;;;;10.94;100.00;101626.56;5117715;27;20106;-48
2023/05/16 01:36:49;;;;;;;1.27;0.10;;;;;;;10.78;100.00;101630.88;5113200;27;20146;-48
2023/05/16 01:39:43;;;;;;;4.68;0.80;;;;;;;10.64;100.00;101635.00;5119069;27;20395;-48
2023/05/16 01:42:20;;;;;;;6.00;0.20;;;;;;;10.49;100.00;101636.63;5106413;27;20459;-49
2023/05/16 01:44:53;;;;;;;3.30;1.30;;;;;;;10.30;100.00;101623.63;5110634;27;20568;-47
2023/05/16 01:47:21;;;;;;;2.83;0.40;;;;;;;10.22;100.00;101630.56;5114459;27;20693;-49
2023/05/16 01:50:15;;;;;;;6.07;0.30;;;;;;;10.23;100.00;101639.34;5109593;27;20028;-48
2023/05/16 01:52:48;;;;;;;0.47;0.00;;;;;;;10.07;100.00;101637.47;5116967;27;20100;-50
2023/05/16 01:55:35;;;;;;;1.38;0.22;;;;;;;10.15;100.00;101632.19;5115374;27;20429;-52
2023/05/16 01:58:03;;;;;;;0.20;0.03;;;;;;;10.05;100.00;101627.00;5115091;27;20031;-48
2023/05/16 02:00:30;;;;;;;0.73;0.10;;;;;;;10.03;100.00;101628.16;5114819;27;20117;-51
2023/05/16 02:02:55;;;;;;;2.65;0.10;;;;;;;9.99;100.00;101621.50;5118818;27;20027;-48
2023/05/16 02:05:21;;;;;;;7.13;0.10;;;;;;;9.96;100.00;101629.78;5113593;27;20466;-46
2023/05/16 02:07:46;;;;;;;0.75;0.03;;;;;;;9.87;100.00;101625.44;5119582;27;20714;-52
2023/05/16 02:10:12;;;;;;;0.38;0.10;;;;;;;9.88;100.00;101635.88;5117738;27;20031;-47
2023/05/16 02:12:38;;;;;;;2.28;0.10;;;;;;;9.84;100.00;101629.25;5111955;27;20042;-49
2023/05/16 02:15:04;;;;;;;1.27;0.35;;;;;;;9.72;100.00;101635.78;5117546;27;20031;-49
2023/05/16 02:17:29;;;;;;;0.85;0.60;;;;;;;9.76;100.00;101626.56;5109600;27;20249;-51
2023/05/16 02:19:55;;;;;;;1.65;0.10;;;;;;;9.77;100.00;101628.22;5117876;27;20027;-47
2023/05/16 02:22:20;;;;;;;1.02;0.95;;;;;;;9.75;100.00;101624.88;5122318;27;20537;-53
2023/05/16 02:24:45;;;;;;;0.82;0.22;;;;;;;9.66;100.00;101624.00;5115549;27;20559;-50
2023/05/16 02:27:11;;;;;;;6.82;0.32;;;;;;;9.63;100.00;101626.97;5120543;27;20054;-51
2023/05/16 02:29:36;;;;;;;3.67;1.10;;;;;;;9.61;100.00;101623.66;5108778;27;20023;-50
2023/05/16 02:32:01;;;;;;;4.32;0.20;;;;;;;9.61;100.00;101624.47;5110628;27;20032;-49
2023/05/16 02:34:27;;;;;;;2.58;0.68;;;;;;;9.70;100.00;101633.28;5112307;27;20023;-50
2023/05/16 02:36:52;;;;;;;1.30;0.22;;;;;;;9.71;100.00;101623.56;5118716;27;20019;-48
2023/05/16 02:39:17;;;;;;;2.10;0.17;;;;;;;9.64;100.00;101623.34;5109695;27;20040;-53
2023/05/16 02:41:43;;;;;;;2.25;0.22;;;;;;;9.55;100.00;101624.25;5113422;27;20031;-51
2023/05/16 02:44:08;;;;;;;2.10;0.13;;;;;;;9.48;100.00;101625.91;5114664;27;20032;-49
2023/05/16 02:46:34;;;;;;;3.63;0.82;;;;;;;9.39;100.00;101628.47;5115695;27;20031;-48
2023/05/16 02:49:00;;;;;;;1.02;0.25;;;;;;;9.38;100.00;101633.94;5104923;27;20036;-50
2023/05/16 02:51:27;;;;;;;4.38;0.28;;;;;;;9.32;100.00;101629.25;5113911;27;20126;-50
2023/05/16 02:53:53;;;;;;;0.35;0.20;;;;;;;8.09;100.00;101636.78;5120653;27;20039;-48
2023/05/16 02:56:20;;;;;;;0.65;0.40;;;;;;;7.86;100.00;101635.50;5122172;27;20445;-48
2023/05/16 02:58:48;;;;;;;0.75;0.22;;;;;;;8.64;100.00;101625.38;5119699;27;20035;-52
2023/05/16 03:01:14;;;;;;;3.40;0.22;;;;;;;8.81;100.00;101625.53;5114753;27;20115;-49
2023/05/16 03:03:40;;;;;;;0.98;0.40;;;;;;;8.79;100.00;101625.69;5108011;27;20085;-49
2023/05/16 03:06:05;;;;;;;6.40;0.20;;;;;;;8.48;100.00;101623.38;5111042;27;20031;-49
2023/05/16 03:08:31;;;;;;;1.25;0.40;;;;;;;8.41;100.00;101616.22;5119101;27;20084;-52
2023/05/16 03:10:56;;;;;;;0.32;0.00;;;;;;;8.39;100.00;101621.66;5117882;27;20117;-47
2023/05/16 03:13:22;;;;;;;0.88;0.10;;;;;;;8.35;100.00;101609.69;5115391;27;20043;-51
2023/05/16 03:15:47;;;;;;;1.50;0.38;;;;;;;8.26;100.00;101613.19;5116883;27;20174;-49
2023/05/16 03:18:13;;;;;;;0.65;0.00;;;;;;;7.91;100.00;101622.72;5120793;27;20068;-48
2023/05/16 03:20:38;;;;;;;2.83;0.20;;;;;;;8.26;100.00;101618.47;5124238;27;20413;-52
2023/05/16 03:23:07;;;;;;;0.43;0.32;;;;;;;8.47;100.00;101619.09;5117512;27;20484;-50
2023/05/16 03:25:33;;;;;;;1.13;0.40;;;;;;;8.50;100.00;101618.78;5120528;27;20042;-48
2023/05/16 03:27:58;;;;;;;0.28;0.10;;;;;;;8.56;100.00;101622.66;5119158;27;20372;-48
2023/05/16 03:30:24;;;;;;;0.60;0.22;;;;;;;8.53;100.00;101628.25;5118396;27;20041;-52
2023/05/16 03:32:50;;;;;;;1.30;0.30;;;;;;;8.52;100.00;101632.69;5114238;27;20039;-51
2023/05/16 03:35:16;;;;;;;0.63;0.00;;;;;;;8.50;100.00;101626.72;5123689;27;20369;-50
2023/05/16 03:37:41;;;;;;;1.45;0.20;;;;;;;8.61;100.00;101623.03;5101421;27;20038;-50
2023/05/16 03:40:07;;;;;;;6.55;0.57;;;;;;;8.56;100.00;101621.81;5121061;27;20067;-50
2023/05/16 03:42:33;;;;;;;2.30;0.40;;;;;;;8.42;100.00;101629.28;5113043;27;20419;-47
2023/05/16 03:44:58;;;;;;;2.53;0.08;;;;;;;8.30;100.00;101622.50;5116774;27;20100;-46
2023/05/16 03:47:24;;;;;;;0.38;0.13;;;;;;;8.37;100.00;101623.59;5126988;27;20400;-48
2023/05/16 03:49:49;;;;;;;5.93;1.55;;;;;;;8.25;100.00;101633.50;5116413;27;20062;-48
2023/05/16 03:52:14;;;;;;;0.90;0.15;;;;;;;8.29;100.00;101629.59;5125905;27;20023;-50
2023/05/16 03:54:40;;;;;;;8.20;0.20;;;;;;;8.37;100.00;101626.22;5126134;27;20053;-50
2023/05/16 03:57:05;;;;;;;2.25;0.17;;;;;;;8.36;100.00;101634.28;5117371;27;20152;-46
2023/05/16 03:59:30;;;;;;;1.27;0.20;;;;;;;8.36;100.00;101629.81;5121250;27;20381;-49
2023/05/16 04:01:56;;;;;;;0.30;0.22;;;;;;;8.39;100.00;101631.34;5115476;27;20038;-49
2023/05/16 04:04:21;;;;;;;0.52;0.52;;;;;;;8.38;100.00;101633.16;5118472;27;20031;-51
2023/05/16 04:06:46;;;;;;;0.47;0.40;;;;;;;8.40;100.00;101623.31;5113082;27;20397;-54
2023/05/16 04:09:12;;;;;;;12.70;0.52;;;;;;;8.26;100.00;101631.69;5110890;27;20036;-49
2023/05/16 04:11:37;;;;;;;3.78;0.20;;;;;;;8.25;100.00;101622.13;5112903;27;20461;-47
2023/05/16 04:14:03;;;;;;;0.25;0.10;;;;;;;8.27;100.00;101622.81;5120836;27;20429;-51
2023/05/16 04:16:28;;;;;;;0.63;0.10;;;;;;;8.29;100.00;101623.50;5117175;27;20035;-46
2023/05/16 04:18:55;;;;;;;2.80;0.88;;;;;;;8.22;100.00;101617.13;5118880;27;20067;-48
2023/05/16 04:21:20;;;;;;;1.08;0.50;;;;;;;8.25;100.00;101625.59;5112061;27;20076;-50
2023/05/16 04:23:45;;;;;;;9.20;1.30;;;;;;;8.31;100.00;101626.78;5117460;27;20031;-47
2023/05/16 04:26:11;;;;;;;2.00;0.55;;;;;;;8.33;100.00;101634.59;5121682;27;20397;-49
2023/05/16 04:28:37;;;;;;;2.33;0.35;;;;;;;8.32;100.00;101633.75;5118334;27;20110;-48
2023/05/16 04:31:02;;;;;;;1.25;0.40;;;;;;;8.34;100.00;101645.03;5113684;27;20035;-48
2023/05/16 04:33:27;;;;;;;0.95;0.13;;;;;;;8.37;100.00;101639.44;5121645;27;20088;-46
2023/05/16 04:35:53;;;;;;;3.08;0.32;;;;;;;8.35;100.00;101636.09;5120189;27;20033;-48
2023/05/16 04:38:19;;;;;;;1.17;0.20;;;;;;;8.40;100.00;101635.69;5125379;27;20031;-49
2023/05/16 04:40:44;;;;;;;0.60;0.35;;;;;;;8.41;100.00;101648.75;5113234;27;20024;-50
2023/05/16 04:43:10;;;;;;;0.45;0.00;;;;;;;8.44;100.00;101648.47;5119011;27;20039;-48
2023/05/16 04:45:35;;;;;;;2.58;0.95;;;;;;;8.48;100.00;101652.47;5114944;27;20071;-48
2023/05/16 04:48:01;;;;;;;4.38;0.43;;;;;;;8.48;100.00;101651.66;5119236;27;20050;-49
2023/05/16 04:50:26;;;;;;;4.43;0.30;;;;;;;8.41;100.00;101646.09;5119018;27;20068;-50
2023/05/16 04:52:51;;;;;;;3.00;0.32;;;;;;;8.37;100.00;101650.00;5120519;27;20038;-51
2023/05/16 04:55:17;;;;;;;4.57;0.50;;;;;;;8.40;100.00;101652.38;5117978;27;20031;-49
2023/05/16 04:57:42;;;;;;;3.17;0.10;;;;;;;8.39;100.00;101661.31;5110872;27;20019;-50
2023/05/16 05:00:10;;;;;;;0.80;0.13;;;;;;;8.42;100.00;101657.53;5109371;27;20031;-50
2023/05/16 05:02:36;;;;;;;0.17;0.10;;;;;;;8.43;100.00;101660.00;5112851;27;20027;-49
2023/05/16 05:05:02;;;;;;;2.47;1.33;;;;;;;8.50;100.00;101660.25;5118504;27;20037;-50
2023/05/16 05:07:28;;;;;;;1.95;0.20;;;;;;;8.51;100.00;101662.75;5120167;27;20035;-49
2023/05/16 05:09:54;;;;;;;3.20;0.20;;;;;;;8.50;100.00;101657.63;5116153;27;20023;-50
2023/05/16 05:12:20;;;;;;;2.65;0.20;;;;;;;8.58;100.00;101662.16;5114278;27;20041;-47
2023/05/16 05:14:46;;;;;;;2.00;0.10;;;;;;;8.60;100.00;101658.38;5107601;27;20031;-48
2023/05/16 05:17:11;;;;;;;1.92;0.20;;;;;;;8.69;100.00;101660.13;5127235;27;20031;-50
2023/05/16 05:19:36;;;;;;;4.78;1.35;;;;;;;8.71;100.00;101658.16;5113942;27;20024;-47
2023/05/16 05:22:02;;;;;;;0.75;0.30;;;;;;;8.81;100.00;101659.91;5110221;27;20035;-51
2023/05/16 05:24:27;;;;;;;1.40;0.70;;;;;;;8.92;100.00;101657.88;5114934;27;20031;-51
2023/05/16 05:26:52;;;;;;;0.88;0.10;;;;;;;9.01;100.00;101668.50;5111975;27;20059;-49
2023/05/16 05:29:17;;;;;;;0.60;0.55;;;;;;;8.98;100.00;101664.34;5115468;27;20028;-51
2023/05/16 05:31:43;;;;;;;3.35;0.32;;;;;;;9.03;100.00;101666.56;5112559;27;20032;-50
2023/05/16 05:34:08;;;;;;;0.52;0.15;;;;;;;9.11;100.00;101666.63;5119249;27;20015;-49
2023/05/16 05:36:33;;;;;;;2.05;0.45;;;;;;;9.27;100.00;101680.00;5124169;27;20787;-51
2023/05/16 05:38:59;;;;;;;1.20;0.55;;;;;;;9.53;100.00;101676.56;5122866;27;20037;-46
2023/05/16 05:41:25;;;;;;;2.67;0.28;;;;;;;9.71;100.00;101674.69;5107176;27;20049;-48
2023/05/16 05:43:51;;;;;;;2.10;0.20;;;;;;;9.79;100.00;101676.56;5111686;27;20552;-50
2023/05/16 05:46:16;;;;;;;3.33;0.50;;;;;;;9.92;100.00;101678.78;5114743;27;20051;-51
2023/05/16 05:48:41;;;;;;;1.88;0.35;;;;;;;10.02;100.00;101687.47;5113076;27;20088;-47
2023/05/16 05:51:07;;;;;;;2.15;0.13;;;;;;;10.08;100.00;101689.47;5114197;27;20028;-49
2023/05/16 05:53:33;;;;;;;1.17;0.40;;;;;;;10.19;100.00;101697.13;5121210;27;20039;-52
2023/05/16 05:55:58;;;;;;;9.65;0.70;;;;;;;10.26;100.00;101692.84;5107408;27;20381;-50
2023/05/16 05:58:24;;;;;;;5.50;0.20;;;;;;;10.40;100.00;101694.13;5109941;27;20035;-48
2023/05/16 06:00:49;;;;;;;9.13;0.20;;;;;;;10.53;100.00;101693.63;5109564;27;20411;-48
2023/05/16 06:03:15;;;;;;;4.22;0.55;;;;;;;10.61;100.00;101696.34;5114099;27;20349;-49
2023/05/16 06:05:40;;;;;;;4.47;2.03;;;;;;;10.75;100.00;101699.34;5115208;27;20070;-51
2023/05/16 06:08:06;;;;;;;4.93;0.15;;;;;;;10.90;100.00;101700.38;5115848;27;20066;-47
2023/05/16 06:10:31;;;;;;;1.95;0.98;;;;;;;10.91;100.00;101705.50;5108255;27;20130;-49
2023/05/16 06:12:56;;;;;;;3.50;0.50;;;;;;;10.99;100.00;101701.22;5113830;27;20210;-49
2023/05/16 06:15:22;;;;;;;4.18;1.08;;;;;;;11.10;100.00;101701.75;5116476;27;20043;-49
2023/05/16 06:17:47;;;;;;;6.78;0.60;;;;;;;11.14;100.00;101703.06;5123314;27;20164;-48
2023/05/16 06:20:13;;;;;;;0.88;0.68;;;;;;;11.23;100.00;101711.00;5112377;27;20035;-47
2023/05/16 06:22:38;;;;;;;2.88;0.10;;;;;;;11.25;100.00;101706.38;5113999;27;20392;-49
2023/05/16 06:25:04;;;;;;;4.45;0.25;;;;;;;11.28;100.00;101714.00;5116853;27;20031;-46
2023/05/16 06:27:29;;;;;;;0.82;0.60;;;;;;;11.35;100.00;101717.66;5113538;27;20023;-53
2023/05/16 06:29:55;;;;;;;5.53;0.32;;;;;;;11.34;100.00;101718.66;5120010;27;20123;-49
2023/05/16 06:32:20;;;;;;;2.42;0.50;;;;;;;11.43;100.00;101712.34;5116233;27;20042;-50
2023/05/16 06:34:45;;;;;;;8.65;0.82;;;;;;;11.47;100.00;101723.47;5097501;27;20016;-49
2023/05/16 06:37:11;;;;;;;2.55;0.10;;;;;;;11.43;100.00;101715.00;5125938;27;20142;-49
2023/05/16 06:39:36;;;;;;;4.47;0.50;;;;;;;11.67;100.00;101715.97;5117912;27;20572;-54
2023/05/16 06:42:01;;;;;;;7.60;0.65;;;;;;;11.71;100.00;101712.00;5117256;27;20039;-50
2023/05/16 06:44:27;;;;;;;11.55;0.60;;;;;;;11.73;100.00;101715.31;5121693;27;20027;-51
2023/05/16 06:46:52;;;;;;;6.57;0.50;;;;;;;11.91;100.00;101718.63;5110749;27;20488;-50
2023/05/16 06:49:17;;;;;;;4.53;1.20;;;;;;;11.84;100.00;101719.44;5128238;27;20027;-48
2023/05/16 06:51:43;;;;;;;4.22;0.38;;;;;;;12.08;100.00;101726.56;5121308;27;20114;-48
2023/05/16 06:54:08;;;;;;;0.47;0.35;;;;;;;12.17;100.00;101722.91;5122290;27;20025;-50
2023/05/16 06:56:33;;;;;;;6.40;0.75;;;;;;;12.17;100.00;101728.22;5131322;27;20072;-52
2023/05/16 06:59:00;;;;;;;7.63;0.77;;;;;;;12.38;100.00;101717.00;5124156;27;20082;-50
2023/05/16 07:01:25;;;;;;;5.47;1.33;;;;;;;12.42;100.00;101719.16;5120372;27;20126;-49
2023/05/16 07:03:51;;;;;;;1.73;0.63;;;;;;;12.43;100.00;101719.97;5120098;27;20485;-46
2023/05/16 07:06:16;;;;;;;6.65;1.27;;;;;;;12.58;100.00;101728.88;5116063;27;20031;-48
2023/05/16 07:08:41;;;;;;;8.27;0.95;;;;;;;12.59;100.00;101727.03;5114243;27;20034;-49
2023/05/16 07:11:07;;;;;;;7.75;0.70;;;;;;;12.50;100.00;101736.06;5117103;27;20035;-49
2023/05/16 07:13:32;;;;;;;2.92;0.47;;;;;;;12.64;100.00;101730.84;5114676;27;20040;-50
2023/05/16 07:15:57;;;;;;;1.13;0.15;;;;;;;12.55;100.00;101734.56;5113998;27;20061;-51
2023/05/16 07:18:23;;;;;;;10.90;1.30;;;;;;;12.71;100.00;101736.31;5118178;27;20458;-49
2023/05/16 07:20:48;;;;;;;10.93;0.52;;;;;;;12.69;100.00;101738.31;5120610;27;20027;-48
2023/05/16 07:23:13;;;;;;;3.67;1.30;;;;;;;13.01;100.00;101731.13;5123894;27;20039;-50
2023/05/16 07:25:39;;;;;;;7.88;0.75;;;;;;;13.24;100.00;101734.66;5122291;27;20395;-47
2023/05/16 07:28:04;;;;;;;5.40;0.47;;;;;;;13.48;100.00;101728.31;5117997;27;20480;-45
2023/05/16 07:30:30;;;;;;;5.00;0.10;;;;;;;13.35;100.00;101735.25;5118575;27;20042;-51
2023/05/16 07:32:55;;;;;;;2.45;0.10;;;;;;;13.13;100.00;101727.03;5127817;27;20043;-47
2023/05/16 07:35:20;;;;;;;7.95;0.77;;;;;;;13.29;100.00;101734.13;5096150;27;20035;-48
2023/05/16 07:37:46;;;;;;;2.03;0.77;;;;;;;13.35;100.00;101735.25;5123824;27;20027;-50
2023/05/16 07:40:12;;;;;;;4.03;1.48;;;;;;;13.43;100.00;101738.69;5117177;27;20027;-49
2023/05/16 07:42:37;;;;;;;5.80;0.50;;;;;;;13.52;100.00;101740.25;5121682;27;20031;-45
2023/05/16 07:45:04;;;;;;;2.15;0.47;;;;;;;13.68;100.00;101739.31;5119528;27;20043;-50
2023/05/16 07:47:29;;;;;;;4.43;1.23;;;;;;;13.95;100.00;101735.19;5119099;27;20027;-48
2023/05/16 07:49:55;;;;;;;3.78;0.90;;;;;;;13.96;100.00;101736.00;5118442;27;20411;-49
2023/05/16 07:52:21;;;;;;;3.72;0.45;;;;;;;14.28;100.00;101731.34;5114726;27;20123;-49
2023/05/16 07:54:46;;;;;;;3.72;0.50;;;;;;;14.42;100.00;101733.16;5123317;27;20027;-48
2023/05/16 07:57:14;;;;;;;4.53;0.85;;;;;;;14.48;100.00;101735.09;5121153;27;20077;-50
2023/05/16 07:59:39;;;;;;;6.00;1.30;;;;;;;14.32;100.00;101740.63;5121014;27;20031;-54
2023/05/16 08:02:05;;;;;;;11.38;1.20;;;;;;;14.51;100.00;101725.91;5113512;27;20020;-49
2023/05/16 08:04:30;;;;;;;3.35;0.15;;;;;;;14.64;100.00;101723.41;5119085;27;20372;-49
2023/05/16 08:06:55;;;;;;;4.70;1.30;;;;;;;14.61;100.00;101734.44;5120571;27;20058;-51
2023/05/16 08:09:20;;;;;;;1.40;0.88;;;;;;;14.55;100.00;101732.53;5127894;27;20130;-52
2023/05/16 08:11:46;;;;;;;6.03;0.77;;;;;;;14.67;100.00;101730.22;5124643;27;20027;-49
2023/05/16 08:14:11;;;;;;;3.05;0.32;;;;;;;14.82;100.00;101729.16;5121462;27;20035;-45
2023/05/16 08:16:36;;;;;;;6.10;1.33;;;;;;;14.67;100.00;101735.56;5119449;27;20023;-47
2023/05/16 08:19:02;;;;;;;1.35;0.70;;;;;;;15.02;100.00;101729.38;5108582;27;20028;-47
2023/05/16 08:21:27;;;;;;;6.90;0.57;;;;;;;15.09;100.00;101733.94;5121930;27;20359;-50
2023/05/16 08:23:53;;;;;;;0.77;0.20;;;;;;;15.27;100.00;101726.31;5120754;27;20083;-56
2023/05/16 08:26:18;;;;;;;1.10;0.20;;;;;;;15.64;100.00;101727.88;5118973;27;20471;-49
2023/05/16 08:28:43;;;;;;;2.58;0.30;;;;;;;15.85;100.00;101729.69;5114566;27;20373;-49
2023/05/16 08:31:08;;;;;;;3.65;0.20;;;;;;;15.74;100.00;101732.06;5118666;27;20128;-54
2023/05/16 08:33:34;;;;;;;1.55;0.45;;;;;;;15.69;100.00;101729.97;5116682;27;20031;-51
2023/05/16 08:36:00;;;;;;;5.63;0.73;;;;;;;15.85;100.00;101732.38;5113990;27;20412;-50
2023/05/16 08:38:25;;;;;;;4.18;1.08;;;;;;;15.60;100.00;101728.44;5117924;27;20034;-49
2023/05/16 08:40:50;;;;;;;3.05;0.25;;;;;;;15.61;100.00;101735.44;5112832;27;20023;-50
2023/05/16 08:43:16;;;;;;;3.47;1.45;;;;;;;15.62;100.00;101734.44;5121565;27;20039;-49
2023/05/16 08:45:41;;;;;;;2.45;0.10;;;;;;;15.89;100.00;101730.94;5123335;27;20039;-48
2023/05/16 08:48:09;;;;;;;2.78;0.08;;;;;;;16.23;100.00;101718.59;5119535;27;20027;-48
2023/05/16 08:50:35;;;;;;;7.32;0.80;;;;;;;16.55;100.00;101716.28;5110923;27;20058;-49
2023/05/16 08:53:06;;;;;;;2.15;0.10;;;;;;;16.69;100.00;101720.63;5115578;27;20320;-48
2023/05/16 08:55:32;;;;;;;3.80;0.40;;;;;;;16.91;100.00;101713.31;5103658;27;20132;-48
2023/05/16 08:57:59;;;;;;;6.07;1.15;;;;;;;16.73;100.00;101716.53;5125046;27;20696;-49
2023/05/16 09:00:26;;;;;;;1.25;0.25;;;;;;;16.86;100.00;101718.47;5122722;27;20027;-49
2023/05/16 09:02:52;;;;;;;2.42;0.28;;;;;;;17.00;100.00;101724.66;5113534;27;20084;-47
2023/05/16 09:05:17;;;;;;;5.55;2.50;;;;;;;16.76;100.00;101726.03;5115898;27;20821;-48
2023/05/16 09:07:43;;;;;;;3.20;0.20;;;;;;;15.84;100.00;101744.06;5116406;27;20030;-50
2023/05/16 09:10:10;;;;;;;4.18;1.08;;;;;;;16.85;100.00;101740.06;5124267;27;20114;-53
2023/05/16 09:12:36;;;;;;;1.40;0.15;;;;;;;17.32;100.00;101730.25;5114792;27;20042;-48
2023/05/16 09:15:03;;;;;;;3.78;0.35;;;;;;;17.39;100.00;101736.44;5116331;27;20465;-46
2023/05/16 09:17:37;;;;;;;2.88;0.88;;;;;;;17.24;100.00;101736.63;5123294;27;20032;-48
2023/05/16 09:20:17;;;;;;;1.90;0.65;;;;;;;16.96;100.00;101737.66;5121019;27;20022;-50
2023/05/16 09:22:58;;;;;;;3.28;1.27;;;;;;;16.90;96.47;101734.94;5121606;27;20030;-49
2023/05/16 09:25:25;;;;;;;;;;;;;;;17.22;95.99;101741.41;5113746;27;20031;-49
2023/05/16 09:27:58;;;;;;;4.75;0.20;;;;;;;17.67;100.00;101734.38;5114567;27;20651;-46
2023/05/16 09:30:29;;;;;;;2.25;0.25;;;;;;;18.49;99.09;101737.53;5117374;27;20035;-47
2023/05/16 09:32:54;;;;;;;1.37;0.20;;;;;;;18.72;94.43;101742.38;5118123;27;20458;-51
2023/05/16 09:35:20;;;;;;;1.45;0.30;;;;;;;18.42;91.58;101734.03;5120484;27;20027;-48
2023/05/16 09:37:47;;;;;;;0.70;0.22;;;;;;;18.19;93.18;101739.06;5120601;27;20101;-47
2023/05/16 09:40:13;;;;;;;1.77;0.70;;;;;;;17.67;93.21;101739.75;5118736;27;20023;-48
2023/05/16 09:42:39;;;;;;;2.90;0.10;;;;;;;18.17;97.10;101741.13;5118324;27;20034;-53
2023/05/16 09:45:05;;;;;;;2.45;0.40;;;;;;;18.35;95.18;101735.91;5115868;27;20082;-50
2023/05/16 09:47:30;;;;;;;4.40;0.38;;;;;;;17.94;91.64;101737.09;5111133;27;20031;-48
2023/05/16 09:49:56;;;;;;;1.15;0.30;;;;;;;17.60;95.63;101736.22;5118207;27;20055;-49
2023/05/16 09:52:21;;;;;;;0.98;0.22;;;;;;;17.60;94.15;101738.91;5119560;27;20031;-46
2023/05/16 09:54:50;;;;;;;4.05;1.08;;;;;;;17.73;94.51;101734.59;5120818;27;20107;-48
2023/05/16 09:57:20;;;;;;;9.38;1.45;;;;;;;17.79;90.97;101731.09;5119731;27;20392;-49
2023/05/16 09:59:46;;;;;;;1.55;0.38;;;;;;;17.91;89.80;101739.34;5126673;27;20174;-48
2023/05/16 10:02:12;;;;;;;1.77;0.17;;;;;;;17.90;88.25;101733.16;5116745;27;20455;-48
2023/05/16 10:04:38;;;;;;;5.47;0.20;;;;;;;18.16;90.50;101732.25;5107718;27;20462;-48
2023/05/16 10:07:05;;;;;;;1.92;0.28;;;;;;;17.84;84.17;101742.88;5111173;27;20155;-52
2023/05/16 10:09:35;;;;;;;2.58;0.15;;;;;;;18.11;86.04;101736.63;5110974;27;20511;-48
2023/05/16 10:12:03;;;;;;;2.15;0.10;;;;;;;18.31;87.77;101735.53;5116083;27;20077;-50
2023/05/16 10:14:30;;;;;;;1.85;0.08;;;;;;;18.58;86.54;101730.03;5117375;27;20350;-46
2023/05/16 10:16:56;;;;;;;6.60;0.45;;;;;;;18.70;85.22;101724.81;5117606;27;20032;-46
2023/05/16 10:19:24;;;;;;;1.67;0.50;;;;;;;18.60;85.51;101729.84;5124674;27;20027;-46
2023/05/16 10:21:52;;;;;;;4.03;0.28;;;;;;;18.95;87.28;101719.56;5113777;27;20035;-51
2023/05/16 10:24:22;;;;;;;4.10;0.90;;;;;;;19.43;84.69;101716.28;5107729;27;20027;-46
2023/05/16 10:26:50;;;;;;;1.25;0.10;;;;;;;19.13;77.45;101719.63;5126225;27;20481;-53
2023/05/16 10:29:16;;;;;;;1.90;0.15;;;;;;;18.55;77.17;101719.72;5122023;27;20037;-51
2023/05/16 10:31:42;;;;;;;1.25;0.00;;;;;;;18.56;81.42;101724.09;5112069;27;20027;-49
2023/05/16 10:34:09;;;;;;;3.80;0.43;;;;;;;18.68;81.09;101725.03;5121968;27;20027;-49
2023/05/16 10:36:35;;;;;;;5.18;1.33;;;;;;;19.15;74.33;101725.63;5117028;27;20476;-46
2023/05/16 10:39:02;;;;;;;4.07;0.32;;;;;;;19.11;76.70;101724.41;5117800;27;20510;-48
2023/05/16 10:41:28;;;;;;;2.83;0.10;;;;;;;18.60;76.15;101711.03;5117281;27;20028;-48
2023/05/16 10:43:57;;;;;;;2.20;0.10;;;;;;;18.84;76.55;101717.53;5125891;27;20234;-47
2023/05/16 10:46:25;;;;;;;0.40;0.10;;;;;;;19.24;78.61;101714.59;5109759;27;20132;-47
2023/05/16 10:48:50;;;;;;;2.40;0.20;;;;;;;19.48;78.00;101718.31;5120835;27;20055;-47
2023/05/16 10:51:22;;;;;;;4.25;0.70;;;;;;;18.94;73.57;101734.00;5109493;27;20106;-46
2023/05/16 10:53:50;;;;;;;7.53;0.57;;;;;;;18.39;78.29;101720.22;5126723;27;20031;-46
2023/05/16 10:56:21;;;;;;;1.15;0.10;;;;;;;18.56;77.05;101737.50;5117224;27;20431;-51
2023/05/16 10:58:47;;;;;;;1.00;0.63;;;;;;;18.37;69.22;101719.59;5124799;27;20526;-52
2023/05/16 11:01:34;;;;;;;3.40;0.47;;;;;;;18.88;71.65;101708.03;5118775;27;20039;-49
2023/05/16 11:04:05;;;;;;;1.25;0.30;;;;;;;19.54;73.67;101703.97;5130796;27;20517;-50
2023/05/16 11:06:31;;;;;;;2.40;0.20;;;;;;;19.47;71.89;101711.31;5123675;27;20039;-49
2023/05/16 11:09:08;;;;;;;0.85;0.15;;;;;;;19.38;73.22;101714.25;5132497;27;20050;-48
2023/05/16 11:11:52;;;;;;;4.63;0.35;;;;;;;19.14;68.13;101709.69;5136744;27;20030;-49
2023/05/16 11:14:25;;;;;;;3.03;0.10;;;;;;;19.00;68.74;101714.34;5121635;27;20035;-49
2023/05/16 11:17:08;;;;;;;4.05;0.60;;;;;;;19.23;69.52;101710.25;5113493;27;20039;-47
2023/05/16 11:19:44;;;;;;;0.93;0.10;;;;;;;19.46;66.85;101709.66;5120755;27;20034;-48